Time;durP1;ratioP1;P1;durP2;ratioP2;P2;SDS_P1;SDS_P2;PMS_P1;PMS_P2;Temp;Humidity;BMP_temperature;BMP_pressure;BME280_temperature;BME280_humidity;BME280_pressure;Samples;Min_cycle;Max_cycle;Signal;HPM_P1;HPM_P2
2022/05/31 00:00:05;;;;;;;7.53;6.63;;;;;;;;;;4972413;28;20988;-55
2022/05/31 00:02:31;;;;;;;9.53;6.70;;;;;;;;;;4972774;28;20777;-56
2022/05/31 00:04:58;;;;;;;11.33;7.13;;;;;;;;;;4972678;28;20852;-56
2022/05/31 00:07:24;;;;;;;7.83;6.77;;;;;;;;;;4972947;28;20826;-56
2022/05/31 00:09:50;;;;;;;9.40;6.90;;;;;;;;;;4972522;28;20428;-54
2022/05/31 00:12:16;;;;;;;7.40;6.70;;;;;;;;;;4972541;28;20457;-55
2022/05/31 00:14:42;;;;;;;9.23;7.80;;;;;;;;;;4971333;28;20432;-54
2022/05/31 00:17:08;;;;;;;12.23;6.43;;;;;;;;;;4973432;28;20440;-55
2022/05/31 00:19:35;;;;;;;7.87;6.70;;;;;;;;;;4975732;28;20456;-54
2022/05/31 00:22:06;;;;;;;7.80;7.00;;;;;;;;;;4976134;28;20413;-55
2022/05/31 00:24:33;;;;;;;7.90;7.10;;;;;;;;;;4976049;28;20415;-55
2022/05/31 00:26:59;;;;;;;8.43;7.10;;;;;;;;;;4976092;28;20788;-54
2022/05/31 00:29:26;;;;;;;9.27;7.33;;;;;;;;;;4975777;28;20843;-55
2022/05/31 00:31:52;;;;;;;10.00;7.73;;;;;;;;;;4976105;28;20863;-55
2022/05/31 00:34:19;;;;;;;7.60;6.50;;;;;;;;;;4976186;28;20409;-54
2022/05/31 00:36:45;;;;;;;8.70;7.00;;;;;;;;;;4975879;28;20407;-56
2022/05/31 00:39:12;;;;;;;7.47;6.40;;;;;;;;;;4975652;28;20437;-55
2022/05/31 00:41:39;;;;;;;7.93;6.93;;;;;;;;;;4975698;28;20479;-56
2022/05/31 00:44:09;;;;;;;7.10;6.50;;;;;;;;;;4975812;28;20405;-55
2022/05/31 00:46:46;;;;;;;8.43;6.03;;;;;;;;;;4975759;28;20723;-55
2022/05/31 00:49:13;;;;;;;11.03;6.70;;;;;;;;;;4975349;28;20800;-56
2022/05/31 00:51:43;;;;;;;7.47;6.77;;;;;;;;;;4975703;28;20568;-55
2022/05/31 00:54:11;;;;;;;9.10;6.40;;;;;;;;;;4975875;28;20440;-55
2022/05/31 00:56:37;;;;;;;7.00;6.30;;;;;;;;;;4975545;28;20963;-55
2022/05/31 00:59:10;;;;;;;7.97;7.17;;;;;;;;;;4975018;28;20421;-56
2022/05/31 01:01:37;;;;;;;11.37;6.13;;;;;;;;;;4975020;28;20960;-55
2022/05/31 01:04:03;;;;;;;8.80;7.30;;;;;;;;;;4974908;28;20409;-54
2022/05/31 01:06:30;;;;;;;10.77;6.90;;;;;;;;;;4974965;28;20767;-57
2022/05/31 01:08:57;;;;;;;7.73;7.03;;;;;;;;;;4975091;28;20864;-55
2022/05/31 01:11:24;;;;;;;8.50;7.20;;;;;;;;;;4975358;28;20452;-56
2022/05/31 01:13:50;;;;;;;11.60;8.60;;;;;;;;;;4975131;28;20405;-55
2022/05/31 01:16:17;;;;;;;7.43;6.50;;;;;;;;;;4975170;28;20412;-55
2022/05/31 01:18:43;;;;;;;8.20;6.67;;;;;;;;;;4974757;28;20425;-55
2022/05/31 01:21:09;;;;;;;10.27;7.03;;;;;;;;;;4975160;28;20411;-54
2022/05/31 01:23:41;;;;;;;10.57;5.80;;;;;;;;;;4975059;28;20974;-55
2022/05/31 01:26:16;;;;;;;11.90;6.90;;;;;;;;;;4975435;28;20414;-55
2022/05/31 01:28:47;;;;;;;9.53;7.33;;;;;;;;;;4973863;28;20511;-57
2022/05/31 01:31:17;;;;;;;11.73;6.77;;;;;;;;;;4975005;28;20455;-55
2022/05/31 01:33:56;;;;;;;7.77;6.60;;;;;;;;;;4974906;28;20790;-55
2022/05/31 01:36:25;;;;;;;9.57;6.90;;;;;;;;;;4974841;28;20399;-54
2022/05/31 01:39:01;;;;;;;7.37;6.70;;;;;;;;;;4974345;28;20420;-54
2022/05/31 01:41:31;;;;;;;9.43;6.80;;;;;;;;;;4974619;28;20999;-55
2022/05/31 01:43:58;;;;;;;9.40;7.40;;;;;;;;;;4974661;28;20421;-57
2022/05/31 01:46:27;;;;;;;7.70;7.00;;;;;;;;;;4975139;28;20475;-54
2022/05/31 01:48:53;;;;;;;7.93;7.10;;;;;;;;;;4974241;28;20975;-54
2022/05/31 01:51:20;;;;;;;8.53;7.13;;;;;;;;;;4974330;28;20448;-54
2022/05/31 01:53:46;;;;;;;13.83;6.80;;;;;;;;;;4974604;28;20409;-56
2022/05/31 01:56:13;;;;;;;9.03;6.73;;;;;;;;;;4974372;28;20412;-56
2022/05/31 01:58:39;;;;;;;8.17;7.10;;;;;;;;;;4974306;28;20424;-56
2022/05/31 02:01:06;;;;;;;7.60;6.93;;;;;;;;;;4974192;28;20492;-54
2022/05/31 02:03:33;;;;;;;11.10;6.90;;;;;;;;;;4974309;28;20440;-54
2022/05/31 02:05:59;;;;;;;6.83;6.13;;;;;;;;;;4974145;28;20816;-54
2022/05/31 02:08:26;;;;;;;9.10;6.23;;;;;;;;;;4974048;28;20496;-56
2022/05/31 02:10:54;;;;;;;11.23;7.17;;;;;;;;;;4973873;28;20411;-55
2022/05/31 02:13:20;;;;;;;11.83;7.00;;;;;;;;;;4974276;28;20488;-54
2022/05/31 02:15:46;;;;;;;6.70;6.20;;;;;;;;;;4974151;28;20940;-55
2022/05/31 02:18:12;;;;;;;10.40;7.83;;;;;;;;;;4973883;28;20409;-54
2022/05/31 02:20:38;;;;;;;7.67;6.97;;;;;;;;;;4973628;28;20425;-55
2022/05/31 02:23:05;;;;;;;10.83;6.50;;;;;;;;;;4974078;28;20421;-55
2022/05/31 02:25:30;;;;;;;9.73;6.60;;;;;;;;;;4973861;28;20440;-56
2022/05/31 02:27:56;;;;;;;8.60;7.43;;;;;;;;;;4973819;28;20455;-55
2022/05/31 02:30:22;;;;;;;8.07;7.27;;;;;;;;;;4973466;28;20435;-54
2022/05/31 02:32:48;;;;;;;10.90;6.67;;;;;;;;;;4974105;28;20460;-55
2022/05/31 02:35:14;;;;;;;8.07;6.50;;;;;;;;;;4973700;28;20762;-55
2022/05/31 02:37:40;;;;;;;7.03;6.37;;;;;;;;;;4973844;28;20401;-55
2022/05/31 02:40:07;;;;;;;7.20;6.27;;;;;;;;;;4973325;28;20548;-54
2022/05/31 02:42:33;;;;;;;10.73;6.93;;;;;;;;;;4973531;28;20926;-55
2022/05/31 02:44:59;;;;;;;7.57;6.43;;;;;;;;;;4973606;28;20401;-54
2022/05/31 02:47:26;;;;;;;7.20;6.30;;;;;;;;;;4973448;28;20415;-54
2022/05/31 02:49:51;;;;;;;10.37;6.80;;;;;;;;;;4973385;28;20538;-54
2022/05/31 02:52:18;;;;;;;7.87;6.17;;;;;;;;;;4973333;28;20987;-54
2022/05/31 02:54:44;;;;;;;6.10;5.50;;;;;;;;;;4973429;28;20769;-55
2022/05/31 02:57:10;;;;;;;6.63;6.03;;;;;;;;;;4973390;28;20393;-54
2022/05/31 02:59:36;;;;;;;7.50;6.27;;;;;;;;;;4973056;28;20438;-54
2022/05/31 03:02:02;;;;;;;8.67;6.83;;;;;;;;;;4973172;28;20411;-55
2022/05/31 03:04:28;;;;;;;7.57;6.77;;;;;;;;;;4973308;28;20467;-56
2022/05/31 03:06:54;;;;;;;9.33;6.97;;;;;;;;;;4973537;28;20452;-56
2022/05/31 03:09:20;;;;;;;8.00;6.50;;;;;;;;;;4972870;28;20537;-55
2022/05/31 03:11:49;;;;;;;8.93;6.90;;;;;;;;;;4973159;28;20481;-55
2022/05/31 03:14:15;;;;;;;7.40;6.30;;;;;;;;;;4973171;28;20458;-55
2022/05/31 03:16:42;;;;;;;9.30;6.00;;;;;;;;;;4973027;28;20833;-55
2022/05/31 03:19:13;;;;;;;7.73;6.30;;;;;;;;;;4972775;28;20425;-56
2022/05/31 03:21:42;;;;;;;8.70;6.93;;;;;;;;;;4973133;28;20401;-56
2022/05/31 03:24:12;;;;;;;7.77;6.20;;;;;;;;;;4973026;28;20503;-54
2022/05/31 03:26:40;;;;;;;7.80;6.50;;;;;;;;;;4973076;28;20409;-54
2022/05/31 03:29:06;;;;;;;7.87;7.17;;;;;;;;;;4972632;28;20520;-55
2022/05/31 03:31:33;;;;;;;7.53;6.27;;;;;;;;;;4972935;28;20460;-55
2022/05/31 03:33:59;;;;;;;7.77;5.77;;;;;;;;;;4973002;28;20893;-54
2022/05/31 03:36:25;;;;;;;7.07;6.07;;;;;;;;;;4972897;28;20409;-54
2022/05/31 03:38:51;;;;;;;7.10;6.50;;;;;;;;;;4972724;28;20433;-54
2022/05/31 03:41:17;;;;;;;6.90;6.17;;;;;;;;;;4972737;28;20466;-54
2022/05/31 03:43:43;;;;;;;6.97;6.27;;;;;;;;;;4972781;28;20420;-56
2022/05/31 03:46:15;;;;;;;6.50;5.90;;;;;;;;;;4972883;28;20417;-55
2022/05/31 03:48:41;;;;;;;7.00;6.30;;;;;;;;;;4972894;28;20487;-56
2022/05/31 03:51:09;;;;;;;8.93;7.10;;;;;;;;;;4972440;28;20897;-54
2022/05/31 03:53:35;;;;;;;8.90;6.33;;;;;;;;;;4976004;28;20872;-56
2022/05/31 03:56:02;;;;;;;7.13;6.30;;;;;;;;;;4976634;28;20412;-55
2022/05/31 03:58:28;;;;;;;7.53;6.50;;;;;;;;;;4976322;28;20848;-56
2022/05/31 04:00:54;;;;;;;6.93;5.90;;;;;;;;;;4976390;28;20488;-54
2022/05/31 04:03:20;;;;;;;8.27;6.23;;;;;;;;;;4976487;28;20405;-55
2022/05/31 04:05:47;;;;;;;12.40;5.83;;;;;;;;;;4976630;28;20409;-56
2022/05/31 04:08:13;;;;;;;10.73;7.07;;;;;;;;;;4976360;28;20451;-56
2022/05/31 04:10:40;;;;;;;7.47;6.30;;;;;;;;;;4975999;28;20416;-56
2022/05/31 04:13:07;;;;;;;7.37;6.20;;;;;;;;;;4976248;28;20463;-55
2022/05/31 04:15:33;;;;;;;9.83;6.70;;;;;;;;;;4976275;28;20496;-56
2022/05/31 04:17:59;;;;;;;7.90;6.27;;;;;;;;;;4976228;28;20400;-56
2022/05/31 04:20:26;;;;;;;9.27;6.17;;;;;;;;;;4975895;28;20421;-55
2022/05/31 04:23:57;;;;;;;6.90;6.20;;;;;;;;;;4976150;28;20405;-54
2022/05/31 04:25:38;;;;;;;6.40;5.80;;;;;;;;;;4975990;28;20424;-55
2022/05/31 04:28:04;;;;;;;8.60;5.63;;;;;;;;;;4976127;28;20755;-54
2022/05/31 04:30:30;;;;;;;8.40;6.00;;;;;;;;;;4975763;28;20437;-55
2022/05/31 04:32:56;;;;;;;8.13;5.97;;;;;;;;;;4976040;28;20456;-54
2022/05/31 04:35:22;;;;;;;8.33;7.00;;;;;;;;;;4975907;28;20424;-55
2022/05/31 04:37:48;;;;;;;7.30;6.60;;;;;;;;;;4975791;28;20396;-56
2022/05/31 04:40:14;;;;;;;7.00;6.30;;;;;;;;;;4975502;28;20503;-56
2022/05/31 04:42:41;;;;;;;6.30;5.57;;;;;;;;;;4975767;28;20432;-55
2022/05/31 04:45:08;;;;;;;7.37;5.53;;;;;;;;;;4975806;28;20409;-55
2022/05/31 04:47:34;;;;;;;9.83;7.37;;;;;;;;;;4976097;28;20413;-54
2022/05/31 04:50:00;;;;;;;7.50;6.30;;;;;;;;;;4975303;28;20959;-54
2022/05/31 04:52:26;;;;;;;6.67;5.73;;;;;;;;;;4975429;28;20456;-54
2022/05/31 04:54:52;;;;;;;7.33;6.70;;;;;;;;;;4975629;28;20412;-55
2022/05/31 04:57:18;;;;;;;7.37;6.57;;;;;;;;;;4975583;28;20405;-54
2022/05/31 04:59:45;;;;;;;8.20;6.80;;;;;;;;;;4975159;28;20460;-55
2022/05/31 05:02:11;;;;;;;8.93;6.30;;;;;;;;;;4975596;28;20425;-55
2022/05/31 05:04:37;;;;;;;8.00;5.73;;;;;;;;;;4974262;28;20504;-55
2022/05/31 05:07:03;;;;;;;6.83;5.93;;;;;;;;;;4975344;28;20447;-54
2022/05/31 05:09:29;;;;;;;10.60;6.33;;;;;;;;;;4973986;28;20792;-55
2022/05/31 05:11:55;;;;;;;8.50;6.13;;;;;;;;;;4975393;28;20463;-54
2022/05/31 05:14:21;;;;;;;6.87;5.57;;;;;;;;;;4975305;28;20508;-54
2022/05/31 05:16:47;;;;;;;7.20;6.03;;;;;;;;;;4975254;28;20492;-55
2022/05/31 05:19:14;;;;;;;13.20;5.83;;;;;;;;;;4974780;28;20947;-55
2022/05/31 05:21:40;;;;;;;7.00;5.60;;;;;;;;;;4974927;28;20413;-55
2022/05/31 05:24:06;;;;;;;6.43;5.33;;;;;;;;;;4975060;28;20417;-55
2022/05/31 05:26:32;;;;;;;6.43;5.83;;;;;;;;;;4974993;28;20406;-55
2022/05/31 05:31:42;;;;;;;8.00;6.23;;;;;;;;;;4974925;28;20871;-56
2022/05/31 05:34:09;;;;;;;7.30;5.40;;;;;;;;;;4974392;28;20768;-56
2022/05/31 05:36:35;;;;;;;6.40;5.50;;;;;;;;;;4973817;28;20432;-55
2022/05/31 05:39:01;;;;;;;6.77;5.50;;;;;;;;;;4973601;28;20425;-55
2022/05/31 05:41:29;;;;;;;6.30;5.20;;;;;;;;;;4974488;28;20854;-55
2022/05/31 05:43:55;;;;;;;5.50;4.87;;;;;;;;;;4977048;28;20411;-57
2022/05/31 05:46:22;;;;;;;7.13;6.43;;;;;;;;;;4976618;28;20791;-58
2022/05/31 05:48:49;;;;;;;6.00;5.37;;;;;;;;;;4975389;28;20431;-58
2022/05/31 05:51:17;;;;;;;5.30;4.80;;;;;;;;;;4975373;28;20409;-58
2022/05/31 05:53:43;;;;;;;6.13;5.53;;;;;;;;;;4976009;28;20498;-57
2022/05/31 05:56:09;;;;;;;6.97;6.13;;;;;;;;;;4976757;28;20708;-58
2022/05/31 05:58:35;;;;;;;6.03;5.50;;;;;;;;;;4976531;28;20405;-59
2022/05/31 06:01:02;;;;;;;7.00;6.30;;;;;;;;;;4976569;28;20481;-58
2022/05/31 06:03:31;;;;;;;5.50;4.83;;;;;;;;;;4976972;28;20416;-58
2022/05/31 06:05:58;;;;;;;5.80;5.30;;;;;;;;;;4976664;28;20405;-58
2022/05/31 06:08:29;;;;;;;8.20;6.37;;;;;;;;;;4976041;28;20886;-58
2022/05/31 06:11:02;;;;;;;6.90;6.00;;;;;;;;;;4975904;28;20413;-58
2022/05/31 06:13:31;;;;;;;6.93;6.30;;;;;;;;;;4975948;28;20409;-58
2022/05/31 06:15:57;;;;;;;7.77;6.97;;;;;;;;;;4974085;28;20414;-58
2022/05/31 06:18:32;;;;;;;7.93;6.77;;;;;;;;;;4976018;28;20394;-58
2022/05/31 06:21:01;;;;;;;12.13;6.40;;;;;;;;;;4976074;28;20440;-58
2022/05/31 06:23:27;;;;;;;7.50;6.30;;;;;;;;;;4976007;28;20459;-58
2022/05/31 06:25:54;;;;;;;8.97;7.00;;;;;;;;;;4975937;28;20773;-58
2022/05/31 06:28:20;;;;;;;11.47;6.97;;;;;;;;;;4975752;28;20401;-58
2022/05/31 06:30:46;;;;;;;9.13;7.03;;;;;;;;;;4975861;28;20401;-58
2022/05/31 06:33:12;;;;;;;12.07;7.67;;;;;;;;;;4975865;28;20973;-56
2022/05/31 06:35:38;;;;;;;8.03;7.27;;;;;;;;;;4976253;28;20948;-57
2022/05/31 06:38:04;;;;;;;11.47;7.10;;;;;;;;;;4976725;28;20402;-59
2022/05/31 06:40:30;;;;;;;13.33;11.60;;;;;;;;;;4975702;28;20958;-57
2022/05/31 06:42:58;;;;;;;14.93;10.10;;;;;;;;;;4976856;28;20585;-58
2022/05/31 06:45:24;;;;;;;17.20;10.97;;;;;;;;;;4976837;28;20416;-58
2022/05/31 06:47:50;;;;;;;19.67;11.00;;;;;;;;;;4976176;28;20436;-58
2022/05/31 06:50:16;;;;;;;11.80;10.60;;;;;;;;;;4975699;28;20430;-58
2022/05/31 06:58:19;;;;;;;11.03;8.93;;;;;;;;;;4975649;28;20762;-57
2022/05/31 07:00:45;;;;;;;10.43;8.97;;;;;;;;;;4976941;28;20404;-58
2022/05/31 07:03:11;;;;;;;9.80;8.17;;;;;;;;;;4976723;28;20406;-58
2022/05/31 07:05:38;;;;;;;23.00;8.97;;;;;;;;;;4977080;28;20410;-58
2022/05/31 07:08:05;;;;;;;10.93;8.07;;;;;;;;;;4976920;28;20898;-58
2022/05/31 07:10:30;;;;;;;11.47;8.50;;;;;;;;;;4977609;28;20428;-58
2022/05/31 07:12:56;;;;;;;8.50;7.70;;;;;;;;;;4977082;28;20472;-58
2022/05/31 07:15:24;;;;;;;18.00;11.60;;;;;;;;;;4976595;28;20433;-58
2022/05/31 07:17:50;;;;;;;14.00;10.93;;;;;;;;;;4976370;28;20412;-59
2022/05/31 07:20:16;;;;;;;10.30;8.03;;;;;;;;;;4976074;28;20844;-58
2022/05/31 07:22:42;;;;;;;11.13;8.20;;;;;;;;;;4977270;28;20735;-58
2022/05/31 07:25:09;;;;;;;8.03;7.23;;;;;;;;;;4977994;28;20438;-59
2022/05/31 07:27:35;;;;;;;13.20;7.60;;;;;;;;;;4977280;28;20402;-59
2022/05/31 07:30:01;;;;;;;8.57;7.37;;;;;;;;;;4977078;28;20437;-58
2022/05/31 07:32:27;;;;;;;8.57;7.00;;;;;;;;;;4976649;28;20463;-58
2022/05/31 07:34:54;;;;;;;12.10;6.50;;;;;;;;;;4976164;28;20406;-58
2022/05/31 07:37:20;;;;;;;9.90;7.03;;;;;;;;;;4975391;28;20409;-58
2022/05/31 07:39:48;;;;;;;7.97;7.20;;;;;;;;;;4975395;28;20511;-58
2022/05/31 07:42:14;;;;;;;11.07;7.37;;;;;;;;;;4976017;28;20453;-58
2022/05/31 07:44:40;;;;;;;8.87;6.23;;;;;;;;;;4976065;28;20405;-59
2022/05/31 07:47:06;;;;;;;7.90;6.90;;;;;;;;;;4976180;28;20851;-58
2022/05/31 07:49:32;;;;;;;12.63;6.50;;;;;;;;;;4975672;28;20468;-58
2022/05/31 07:51:58;;;;;;;8.47;6.40;;;;;;;;;;4975876;28;20491;-58
2022/05/31 07:54:25;;;;;;;8.10;5.70;;;;;;;;;;4975983;28;20406;-59
2022/05/31 07:56:50;;;;;;;7.40;6.30;;;;;;;;;;4975945;28;20448;-58
2022/05/31 07:59:17;;;;;;;7.57;6.30;;;;;;;;;;4975180;28;20445;-58
2022/05/31 08:01:43;;;;;;;11.30;6.60;;;;;;;;;;4974818;28;20409;-58
2022/05/31 08:04:09;;;;;;;6.53;5.60;;;;;;;;;;4975315;28;20406;-58
2022/05/31 08:06:35;;;;;;;11.87;7.10;;;;;;;;;;4975609;28;20401;-58
2022/05/31 08:09:01;;;;;;;9.20;7.17;;;;;;;;;;4975647;28;20468;-58
2022/05/31 08:11:28;;;;;;;10.90;8.37;;;;;;;;;;4974544;28;20503;-57
2022/05/31 08:13:55;;;;;;;10.67;7.50;;;;;;;;;;4974566;28;20821;-58
2022/05/31 08:16:22;;;;;;;17.10;8.40;;;;;;;;;;4974581;28;20747;-58
2022/05/31 08:18:48;;;;;;;12.30;8.10;;;;;;;;;;4974166;28;20496;-58
2022/05/31 08:21:16;;;;;;;15.40;7.53;;;;;;;;;;4973441;28;20412;-57
2022/05/31 08:23:42;;;;;;;10.83;7.23;;;;;;;;;;4973895;28;20405;-58
2022/05/31 08:26:08;;;;;;;9.60;7.53;;;;;;;;;;4974816;28;20477;-57
2022/05/31 08:28:34;;;;;;;10.77;7.63;;;;;;;;;;4974941;28;20416;-57
2022/05/31 08:31:01;;;;;;;8.70;6.70;;;;;;;;;;4974997;28;20412;-58
2022/05/31 08:33:27;;;;;;;21.53;6.70;;;;;;;;;;4983443;28;20440;-58
2022/05/31 08:35:54;;;;;;;7.50;6.70;;;;;;;;;;4976393;28;20913;-59
2022/05/31 08:38:20;;;;;;;16.83;7.40;;;;;;;;;;4977071;28;20409;-58
2022/05/31 08:40:48;;;;;;;10.80;8.40;;;;;;;;;;4978670;28;20419;-58
2022/05/31 08:43:18;;;;;;;13.60;6.73;;;;;;;;;;4979497;28;20907;-58
2022/05/31 08:45:53;;;;;;;11.30;7.70;;;;;;;;;;4979605;28;20421;-58
2022/05/31 08:48:29;;;;;;;9.40;6.60;;;;;;;;;;4979487;28;20506;-57
2022/05/31 08:56:56;;;;;;;19.00;12.20;;;;;;;;;;4981156;28;20429;-58
2022/05/31 08:59:25;;;;;;;6.80;5.70;;;;;;;;;;4981624;28;21031;-58
2022/05/31 09:01:54;;;;;;;8.60;6.37;;;;;;;;;;4980832;28;20417;-59
2022/05/31 09:04:22;;;;;;;10.47;6.73;;;;;;;;;;4981363;28;20815;-59
2022/05/31 09:06:54;;;;;;;8.20;6.43;;;;;;;;;;4979612;28;20503;-58
2022/05/31 09:09:22;;;;;;;8.03;5.53;;;;;;;;;;4980523;28;20478;-58
2022/05/31 09:11:55;;;;;;;7.10;5.20;;;;;;;;;;4978462;28;20432;-58
2022/05/31 09:14:25;;;;;;;7.13;5.87;;;;;;;;;;4978140;28;20372;-57
2022/05/31 09:16:58;;;;;;;12.03;6.60;;;;;;;;;;4977563;28;21009;-59
2022/05/31 09:19:30;;;;;;;11.47;5.80;;;;;;;;;;4977030;28;20396;-58
2022/05/31 09:21:56;;;;;;;8.00;6.23;;;;;;;;;;4977280;28;20405;-58
2022/05/31 09:24:22;;;;;;;6.53;5.60;;;;;;;;;;4977071;28;20405;-57
2022/05/31 09:26:51;;;;;;;6.37;5.70;;;;;;;;;;4977090;28;20471;-58
2022/05/31 09:29:17;;;;;;;7.60;5.47;;;;;;;;;;4976720;28;20467;-58
2022/05/31 09:31:43;;;;;;;7.80;5.70;;;;;;;;;;4976409;28;20535;-58
2022/05/31 09:34:28;;;;;;;7.93;6.10;;;;;;;;;;4976607;28;20388;-58
2022/05/31 09:37:03;;;;;;;8.50;6.60;;;;;;;;;;4976069;28;20909;-58
2022/05/31 09:39:34;;;;;;;7.20;6.17;;;;;;;;;;4976012;28;20395;-57
2022/05/31 09:42:00;;;;;;;7.87;6.10;;;;;;;;;;4976326;28;20447;-57
2022/05/31 09:44:29;;;;;;;6.60;5.90;;;;;;;;;;4976840;28;20412;-57
2022/05/31 09:47:04;;;;;;;7.47;6.60;;;;;;;;;;4974626;28;20388;-57
2022/05/31 09:49:33;;;;;;;7.67;5.60;;;;;;;;;;4973826;28;20433;-57
2022/05/31 09:51:59;;;;;;;7.83;5.97;;;;;;;;;;4974399;28;20435;-57
2022/05/31 09:57:21;;;;;;;9.00;5.70;;;;;;;;;;4974582;28;20446;-57
2022/05/31 09:59:50;;;;;;;10.20;6.60;;;;;;;;;;4974068;28;20439;-57
2022/05/31 10:02:25;;;;;;;15.33;7.07;;;;;;;;;;4974450;28;20432;-57
2022/05/31 10:05:06;;;;;;;7.00;5.53;;;;;;;;;;4974128;28;20437;-57
2022/05/31 10:07:35;;;;;;;5.87;5.30;;;;;;;;;;4974106;28;20476;-57
2022/05/31 10:10:03;;;;;;;6.20;5.20;;;;;;;;;;4973929;28;20437;-57
2022/05/31 10:12:31;;;;;;;9.47;5.47;;;;;;;;;;4974289;28;20465;-57
2022/05/31 10:14:57;;;;;;;5.60;5.00;;;;;;;;;;4974087;28;20410;-57
2022/05/31 10:17:36;;;;;;;13.30;6.00;;;;;;;;;;4974073;28;20411;-57
2022/05/31 10:20:20;;;;;;;7.10;5.80;;;;;;;;;;4973537;28;20468;-57
2022/05/31 10:22:50;;;;;;;8.03;5.30;;;;;;;;;;4974120;28;20409;-57
2022/05/31 10:25:22;;;;;;;6.03;5.43;;;;;;;;;;4973929;28;20897;-57
2022/05/31 10:27:48;;;;;;;6.37;5.10;;;;;;;;;;4973773;28;20382;-57
2022/05/31 10:30:19;;;;;;;6.57;5.40;;;;;;;;;;4973419;28;20432;-57
2022/05/31 10:32:48;;;;;;;10.13;4.37;;;;;;;;;;4973781;28;20492;-56
2022/05/31 10:35:17;;;;;;;8.90;5.83;;;;;;;;;;4973713;28;20428;-57
2022/05/31 10:37:55;;;;;;;6.00;5.30;;;;;;;;;;4973700;28;20423;-57
2022/05/31 10:40:23;;;;;;;5.30;4.80;;;;;;;;;;4972733;28;20981;-56
2022/05/31 10:42:52;;;;;;;5.87;4.80;;;;;;;;;;4973441;28;20434;-57
2022/05/31 10:45:23;;;;;;;6.10;4.87;;;;;;;;;;4973566;28;20753;-57
2022/05/31 10:47:49;;;;;;;6.40;4.90;;;;;;;;;;4973495;28;20408;-57
2022/05/31 10:50:15;;;;;;;5.97;4.70;;;;;;;;;;4973129;28;20917;-57
2022/05/31 10:52:53;;;;;;;7.23;4.90;;;;;;;;;;4973391;28;20433;-57
2022/05/31 10:55:40;;;;;;;6.63;5.10;;;;;;;;;;4973508;28;20374;-57
2022/05/31 10:58:15;;;;;;;5.10;4.60;;;;;;;;;;4973201;28;20394;-57
2022/05/31 11:00:47;;;;;;;6.90;5.40;;;;;;;;;;4973063;28;20491;-57
2022/05/31 11:03:19;;;;;;;8.33;4.40;;;;;;;;;;4972334;28;20441;-57
2022/05/31 11:05:52;;;;;;;11.13;4.37;;;;;;;;;;4974069;28;20764;-57
2022/05/31 11:11:28;;;;;;;4.33;3.93;;;;;;;;;;4973284;28;20475;-56
2022/05/31 11:13:59;;;;;;;4.93;4.40;;;;;;;;;;4973220;28;20505;-55
2022/05/31 11:16:43;;;;;;;5.13;4.63;;;;;;;;;;4955744;28;20936;-56
2022/05/31 11:19:14;;;;;;;6.50;4.17;;;;;;;;;;4972889;28;20806;-56
2022/05/31 11:21:58;;;;;;;3.73;3.40;;;;;;;;;;4972812;28;20413;-57
2022/05/31 11:24:42;;;;;;;3.60;3.30;;;;;;;;;;4973001;28;20451;-57
2022/05/31 11:27:08;;;;;;;4.33;2.80;;;;;;;;;;4955474;28;20423;-58
2022/05/31 11:29:45;;;;;;;3.83;3.43;;;;;;;;;;4971422;28;20432;-56
2022/05/31 11:32:20;;;;;;;3.90;3.60;;;;;;;;;;4972874;28;20665;-55
2022/05/31 11:35:04;;;;;;;3.60;3.30;;;;;;;;;;4972864;28;20393;-55
2022/05/31 11:37:51;;;;;;;3.97;3.53;;;;;;;;;;4972791;28;20393;-54
2022/05/31 11:40:21;;;;;;;6.20;3.13;;;;;;;;;;4972573;28;20464;-56
2022/05/31 11:43:05;;;;;;;4.50;3.13;;;;;;;;;;4972617;28;20424;-56
2022/05/31 11:45:45;;;;;;;3.67;2.97;;;;;;;;;;4972810;28;20409;-55
2022/05/31 11:48:20;;;;;;;3.30;3.10;;;;;;;;;;4972835;28;20405;-54
2022/05/31 11:51:05;;;;;;;3.00;2.67;;;;;;;;;;4955225;28;20430;-56
2022/05/31 11:53:31;;;;;;;4.97;2.67;;;;;;;;;;4972991;28;20546;-56
2022/05/31 11:56:12;;;;;;;3.07;2.87;;;;;;;;;;4972757;28;20818;-56
2022/05/31 11:58:41;;;;;;;3.60;3.10;;;;;;;;;;4972438;28;20262;-55
2022/05/31 12:01:14;;;;;;;3.30;3.00;;;;;;;;;;4972481;28;20459;-56
2022/05/31 12:04:03;;;;;;;3.30;3.03;;;;;;;;;;4972655;28;20404;-55
2022/05/31 12:06:35;;;;;;;3.50;3.07;;;;;;;;;;4962736;28;20512;-56
2022/05/31 12:09:09;;;;;;;3.47;3.17;;;;;;;;;;4972534;28;20795;-55
2022/05/31 12:11:37;;;;;;;3.60;2.80;;;;;;;;;;4972388;28;20453;-55
2022/05/31 12:14:04;;;;;;;3.93;3.20;;;;;;;;;;4974775;28;20411;-54
2022/05/31 12:16:31;;;;;;;2.77;2.57;;;;;;;;;;4974787;28;20413;-54
2022/05/31 12:19:23;;;;;;;2.80;2.60;;;;;;;;;;4976082;28;20439;-54
2022/05/31 12:21:49;;;;;;;3.20;2.90;;;;;;;;;;4974653;28;20432;-54
2022/05/31 12:24:21;;;;;;;2.80;2.60;;;;;;;;;;4976097;28;20768;-55
2022/05/31 12:26:50;;;;;;;3.03;2.70;;;;;;;;;;4975865;28;20177;-55
2022/05/31 12:29:19;;;;;;;3.30;3.00;;;;;;;;;;4975764;28;20852;-54
2022/05/31 12:31:46;;;;;;;5.57;3.70;;;;;;;;;;4975720;28;20463;-56
2022/05/31 12:34:35;;;;;;;3.00;2.80;;;;;;;;;;4975851;28;20920;-56
2022/05/31 12:37:04;;;;;;;2.90;2.70;;;;;;;;;;4975702;28;20476;-54
2022/05/31 12:39:33;;;;;;;3.20;2.90;;;;;;;;;;4975897;28;20453;-55
2022/05/31 12:41:59;;;;;;;3.13;2.83;;;;;;;;;;4975341;28;20448;-56
2022/05/31 12:44:33;;;;;;;4.93;2.60;;;;;;;;;;4975867;28;20401;-54
2022/05/31 12:47:20;;;;;;;2.83;2.63;;;;;;;;;;4975789;28;20444;-55
2022/05/31 12:49:56;;;;;;;4.77;2.90;;;;;;;;;;4975323;28;20432;-55
2022/05/31 12:55:20;;;;;;;2.60;2.37;;;;;;;;;;4975405;28;20460;-54
2022/05/31 13:00:49;;;;;;;2.87;2.57;;;;;;;;;;4975582;28;20773;-55
2022/05/31 13:03:33;;;;;;;2.83;2.53;;;;;;;;;;4975389;28;20433;-54
2022/05/31 13:06:03;;;;;;;3.37;2.80;;;;;;;;;;4975737;28;20408;-56
2022/05/31 13:08:44;;;;;;;3.73;2.80;;;;;;;;;;4974867;28;20468;-55
2022/05/31 13:19:41;;;;;;;2.30;2.17;;;;;;;;;;4975085;28;20408;-54
2022/05/31 13:22:17;;;;;;;3.03;2.53;;;;;;;;;;4974949;28;20424;-56
2022/05/31 13:25:04;;;;;;;2.97;2.67;;;;;;;;;;4974053;28;20397;-55
2022/05/31 13:27:35;;;;;;;2.93;2.37;;;;;;;;;;4974851;28;20774;-55
2022/05/31 13:30:03;;;;;;;2.27;2.07;;;;;;;;;;4974630;28;20417;-54
2022/05/31 13:32:36;;;;;;;1.87;1.70;;;;;;;;;;4974815;28;20514;-55
2022/05/31 13:35:06;;;;;;;2.30;2.07;;;;;;;;;;4974807;28;20905;-54
2022/05/31 13:37:32;;;;;;;2.60;2.40;;;;;;;;;;4974638;28;20401;-55
2022/05/31 13:39:59;;;;;;;4.40;2.50;;;;;;;;;;4974396;28;20789;-54
2022/05/31 13:42:31;;;;;;;4.10;2.37;;;;;;;;;;4974572;28;20905;-54
2022/05/31 13:45:02;;;;;;;1.80;1.70;;;;;;;;;;4974928;28;20401;-55
2022/05/31 13:47:28;;;;;;;2.13;1.93;;;;;;;;;;4974657;28;20523;-55
2022/05/31 13:50:04;;;;;;;2.33;1.70;;;;;;;;;;4974198;28;20520;-54
2022/05/31 13:52:31;;;;;;;2.10;1.90;;;;;;;;;;4973728;28;20455;-56
2022/05/31 13:55:17;;;;;;;1.90;1.80;;;;;;;;;;4974490;28;20493;-55
2022/05/31 13:57:53;;;;;;;1.93;1.80;;;;;;;;;;4961223;28;20431;-53
2022/05/31 14:00:31;;;;;;;1.90;1.80;;;;;;;;;;4974084;28;20425;-56
2022/05/31 14:03:05;;;;;;;1.63;1.53;;;;;;;;;;4974765;28;20492;-55
2022/05/31 14:05:34;;;;;;;2.43;2.10;;;;;;;;;;4974327;28;20782;-54
2022/05/31 14:08:00;;;;;;;1.70;1.60;;;;;;;;;;4974350;28;20495;-55
2022/05/31 14:10:27;;;;;;;2.13;2.03;;;;;;;;;;4974046;28;20424;-55
2022/05/31 14:12:58;;;;;;;1.87;1.77;;;;;;;;;;4974100;28;20464;-56
2022/05/31 14:15:27;;;;;;;1.87;1.77;;;;;;;;;;4974527;28;20409;-56
2022/05/31 14:18:04;;;;;;;3.00;2.50;;;;;;;;;;4974095;28;20760;-55
2022/05/31 14:20:33;;;;;;;2.90;1.90;;;;;;;;;;4973791;28;20439;-56
2022/05/31 14:23:04;;;;;;;2.30;2.10;;;;;;;;;;4973977;28;20405;-57
2022/05/31 14:25:31;;;;;;;2.00;1.90;;;;;;;;;;4974009;28;20768;-56
2022/05/31 14:27:57;;;;;;;2.30;2.07;;;;;;;;;;4974047;28;20409;-57
2022/05/31 14:30:28;;;;;;;2.27;2.17;;;;;;;;;;4973515;28;20954;-57
2022/05/31 14:33:00;;;;;;;2.20;1.80;;;;;;;;;;4973938;28;20547;-57
2022/05/31 14:35:30;;;;;;;2.27;2.07;;;;;;;;;;4973788;28;20956;-57
2022/05/31 14:37:56;;;;;;;3.10;1.87;;;;;;;;;;4973505;28;20404;-55
2022/05/31 14:40:31;;;;;;;12.03;2.03;;;;;;;;;;4973046;28;20524;-56
2022/05/31 14:43:26;;;;;;;2.20;2.00;;;;;;;;;;4973630;28;20425;-56
2022/05/31 14:45:52;;;;;;;2.50;1.97;;;;;;;;;;4973729;28;20413;-58
2022/05/31 14:48:37;;;;;;;3.53;2.33;;;;;;;;;;4973517;28;20409;-56
2022/05/31 14:51:10;;;;;;;2.30;2.20;;;;;;;;;;4973307;28;20411;-57
2022/05/31 14:53:38;;;;;;;2.00;1.90;;;;;;;;;;4973514;28;20488;-56
2022/05/31 14:56:17;;;;;;;3.33;1.93;;;;;;;;;;4973594;28;20432;-56
2022/05/31 14:58:45;;;;;;;2.40;2.20;;;;;;;;;;4973304;28;20805;-56
2022/05/31 15:01:17;;;;;;;2.00;1.90;;;;;;;;;;4973153;28;20401;-58
2022/05/31 15:03:45;;;;;;;4.30;2.40;;;;;;;;;;4973300;28;20412;-58
2022/05/31 15:06:14;;;;;;;2.80;2.30;;;;;;;;;;4955819;28;20850;-57
2022/05/31 15:08:41;;;;;;;2.63;2.30;;;;;;;;;;4973134;28;20806;-56
2022/05/31 15:19:31;;;;;;;2.67;2.47;;;;;;;;;;4973074;28;20413;-57
2022/05/31 15:21:57;;;;;;;2.80;2.60;;;;;;;;;;4972915;28;20477;-55
2022/05/31 15:24:31;;;;;;;2.57;2.37;;;;;;;;;;4982102;28;20402;-56
2022/05/31 15:26:58;;;;;;;3.37;2.57;;;;;;;;;;4973033;28;20925;-54
2022/05/31 15:29:24;;;;;;;2.60;2.50;;;;;;;;;;4972814;28;20505;-55
2022/05/31 15:31:50;;;;;;;7.60;2.60;;;;;;;;;;4972803;28;20439;-54
2022/05/31 15:34:16;;;;;;;3.07;2.57;;;;;;;;;;4973028;28;20419;-55